sensor_id;sensor_type;location;lat;lon;timestamp;pressure;altitude;pressure_sealevel;temperature;humidity
72640;BME280;60683;51.730;8.762;2023-11-21T00:01:42;99833.00;;;5.05;100.00
72640;BME280;60683;51.730;8.762;2023-11-21T00:04:09;99828.72;;;5.10;100.00
72640;BME280;60683;51.730;8.762;2023-11-21T00:06:36;99829.94;;;5.08;100.00
72640;BME280;60683;51.730;8.762;2023-11-21T00:09:05;99830.75;;;5.15;100.00
72640;BME280;60683;51.730;8.762;2023-11-21T00:11:34;99836.31;;;5.20;100.00
72640;BME280;60683;51.730;8.762;2023-11-21T00:14:01;99824.78;;;5.26;100.00
72640;BME280;60683;51.730;8.762;2023-11-21T00:16:28;99828.69;;;5.30;100.00
72640;BME280;60683;51.730;8.762;2023-11-21T00:18:55;99828.06;;;5.35;100.00
72640;BME280;60683;51.730;8.762;2023-11-21T00:21:22;99824.38;;;5.36;100.00
72640;BME280;60683;51.730;8.762;2023-11-21T00:23:49;99830.13;;;5.39;100.00
72640;BME280;60683;51.730;8.762;2023-11-21T00:26:17;99827.03;;;5.42;100.00
72640;BME280;60683;51.730;8.762;2023-11-21T00:28:44;99833.81;;;5.45;100.00
72640;BME280;60683;51.730;8.762;2023-11-21T00:31:11;99837.09;;;5.47;100.00
72640;BME280;60683;51.730;8.762;2023-11-21T00:33:39;99833.38;;;5.48;100.00
72640;BME280;60683;51.730;8.762;2023-11-21T00:36:07;99837.50;;;5.50;100.00
72640;BME280;60683;51.730;8.762;2023-11-21T00:38:35;99841.16;;;5.56;100.00
72640;BME280;60683;51.730;8.762;2023-11-21T00:41:04;99845.88;;;5.60;100.00
72640;BME280;60683;51.730;8.762;2023-11-21T00:43:33;99845.88;;;5.67;100.00
72640;BME280;60683;51.730;8.762;2023-11-21T00:46:04;99844.03;;;5.68;100.00
72640;BME280;60683;51.730;8.762;2023-11-21T00:48:31;99841.97;;;5.70;100.00
72640;BME280;60683;51.730;8.762;2023-11-21T00:50:57;99849.72;;;5.78;100.00
72640;BME280;60683;51.730;8.762;2023-11-21T00:53:24;99860.38;;;5.78;100.00
72640;BME280;60683;51.730;8.762;2023-11-21T00:55:52;99861.63;;;5.82;100.00
72640;BME280;60683;51.730;8.762;2023-11-21T00:58:23;99858.34;;;5.80;100.00
72640;BME280;60683;51.730;8.762;2023-11-21T01:00:51;99857.91;;;5.83;100.00
72640;BME280;60683;51.730;8.762;2023-11-21T01:03:18;99858.31;;;5.86;100.00
72640;BME280;60683;51.730;8.762;2023-11-21T01:05:45;99859.56;;;5.90;100.00
72640;BME280;60683;51.730;8.762;2023-11-21T01:08:15;99869.78;;;6.07;100.00
72640;BME280;60683;51.730;8.762;2023-11-21T01:10:42;99868.97;;;6.06;100.00
72640;BME280;60683;51.730;8.762;2023-11-21T01:13:09;99868.75;;;6.14;100.00
72640;BME280;60683;51.730;8.762;2023-11-21T01:15:36;99871.44;;;6.08;100.00
72640;BME280;60683;51.730;8.762;2023-11-21T01:18:04;99880.44;;;6.13;100.00
72640;BME280;60683;51.730;8.762;2023-11-21T01:20:31;99875.72;;;6.15;100.00
72640;BME280;60683;51.730;8.762;2023-11-21T01:22:58;99870.56;;;6.20;100.00
72640;BME280;60683;51.730;8.762;2023-11-21T01:25:25;99880.03;;;6.10;100.00
72640;BME280;60683;51.730;8.762;2023-11-21T01:27:52;99887.84;;;6.11;100.00
72640;BME280;60683;51.730;8.762;2023-11-21T01:30:19;99878.81;;;6.12;100.00
72640;BME280;60683;51.730;8.762;2023-11-21T01:32:46;99883.94;;;6.14;100.00
72640;BME280;60683;51.730;8.762;2023-11-21T01:35:15;99879.03;;;6.11;100.00
72640;BME280;60683;51.730;8.762;2023-11-21T01:37:42;99890.94;;;6.08;100.00
72640;BME280;60683;51.730;8.762;2023-11-21T01:40:09;99887.03;;;6.04;100.00
72640;BME280;60683;51.730;8.762;2023-11-21T01:42:39;99881.50;;;6.06;100.00
72640;BME280;60683;51.730;8.762;2023-11-21T01:45:07;99886.41;;;6.09;100.00
72640;BME280;60683;51.730;8.762;2023-11-21T01:47:36;99887.44;;;6.08;100.00
72640;BME280;60683;51.730;8.762;2023-11-21T01:50:03;99887.47;;;6.01;100.00
72640;BME280;60683;51.730;8.762;2023-11-21T01:52:33;99878.47;;;5.89;100.00
72640;BME280;60683;51.730;8.762;2023-11-21T01:55:01;99881.09;;;5.82;100.00
72640;BME280;60683;51.730;8.762;2023-11-21T01:57:29;99884.63;;;5.70;100.00
72640;BME280;60683;51.730;8.762;2023-11-21T01:59:58;99889.97;;;5.63;100.00
72640;BME280;60683;51.730;8.762;2023-11-21T02:02:25;99888.13;;;5.63;100.00
72640;BME280;60683;51.730;8.762;2023-11-21T02:04:52;99884.22;;;5.66;100.00
72640;BME280;60683;51.730;8.762;2023-11-21T02:07:19;99886.50;;;5.69;100.00
72640;BME280;60683;51.730;8.762;2023-11-21T02:09:47;99885.41;;;5.77;100.00
72640;BME280;60683;51.730;8.762;2023-11-21T02:12:14;99885.41;;;5.77;100.00
72640;BME280;60683;51.730;8.762;2023-11-21T02:14:41;99897.31;;;5.81;100.00
72640;BME280;60683;51.730;8.762;2023-11-21T02:17:09;99898.97;;;5.82;100.00
72640;BME280;60683;51.730;8.762;2023-11-21T02:19:36;99889.75;;;5.91;100.00
72640;BME280;60683;51.730;8.762;2023-11-21T02:22:03;99897.31;;;5.94;100.00
72640;BME280;60683;51.730;8.762;2023-11-21T02:24:33;99892.00;;;5.94;100.00
72640;BME280;60683;51.730;8.762;2023-11-21T02:27:00;99896.50;;;6.00;100.00
72640;BME280;60683;51.730;8.762;2023-11-21T02:29:27;99899.38;;;5.92;100.00
72640;BME280;60683;51.730;8.762;2023-11-21T02:31:54;99895.66;;;5.86;100.00
72640;BME280;60683;51.730;8.762;2023-11-21T02:34:22;99891.16;;;5.80;100.00
72640;BME280;60683;51.730;8.762;2023-11-21T02:36:50;99896.91;;;5.77;100.00
72640;BME280;60683;51.730;8.762;2023-11-21T02:39:18;99902.28;;;5.71;100.00
72640;BME280;60683;51.730;8.762;2023-11-21T02:41:49;99899.63;;;5.64;100.00
72640;BME280;60683;51.730;8.762;2023-11-21T02:44:16;99895.53;;;5.61;100.00
72640;BME280;60683;51.730;8.762;2023-11-21T02:46:43;99906.19;;;5.61;100.00
72640;BME280;60683;51.730;8.762;2023-11-21T02:49:10;99909.69;;;5.55;100.00
72640;BME280;60683;51.730;8.762;2023-11-21T02:51:37;99903.13;;;5.45;100.00
72640;BME280;60683;51.730;8.762;2023-11-21T02:54:05;99917.25;;;5.32;100.00
72640;BME280;60683;51.730;8.762;2023-11-21T02:56:34;99922.16;;;5.28;100.00
72640;BME280;60683;51.730;8.762;2023-11-21T02:59:02;99917.25;;;5.25;100.00
72640;BME280;60683;51.730;8.762;2023-11-21T03:01:30;99921.16;;;5.29;100.00
72640;BME280;60683;51.730;8.762;2023-11-21T03:03:57;99928.75;;;5.39;100.00
72640;BME280;60683;51.730;8.762;2023-11-21T03:06:24;99927.94;;;5.45;100.00
72640;BME280;60683;51.730;8.762;2023-11-21T03:08:51;99923.81;;;5.49;100.00
72640;BME280;60683;51.730;8.762;2023-11-21T03:11:18;99937.97;;;5.56;100.00
72640;BME280;60683;51.730;8.762;2023-11-21T03:13:45;99931.81;;;5.62;100.00
72640;BME280;60683;51.730;8.762;2023-11-21T03:16:14;99924.66;;;5.63;100.00
72640;BME280;60683;51.730;8.762;2023-11-21T03:18:41;99931.63;;;5.71;100.00
72640;BME280;60683;51.730;8.762;2023-11-21T03:21:08;99938.78;;;5.77;100.00
72640;BME280;60683;51.730;8.762;2023-11-21T03:23:35;99941.84;;;5.80;100.00
72640;BME280;60683;51.730;8.762;2023-11-21T03:26:02;99943.88;;;5.85;100.00
72640;BME280;60683;51.730;8.762;2023-11-21T03:28:29;99951.91;;;5.85;100.00
72640;BME280;60683;51.730;8.762;2023-11-21T03:30:56;99954.78;;;5.90;100.00
72640;BME280;60683;51.730;8.762;2023-11-21T03:33:25;99952.13;;;5.96;100.00
72640;BME280;60683;51.730;8.762;2023-11-21T03:35:52;99955.59;;;5.97;100.00
72640;BME280;60683;51.730;8.762;2023-11-21T03:38:19;99957.44;;;6.03;100.00
72640;BME280;60683;51.730;8.762;2023-11-21T03:40:46;99957.66;;;6.02;100.00
72640;BME280;60683;51.730;8.762;2023-11-21T03:43:13;99961.34;;;6.07;100.00
72640;BME280;60683;51.730;8.762;2023-11-21T03:45:40;99956.41;;;6.11;100.00
72640;BME280;60683;51.730;8.762;2023-11-21T03:48:07;99959.69;;;6.19;100.00
72640;BME280;60683;51.730;8.762;2023-11-21T03:50:36;99963.78;;;6.15;100.00
72640;BME280;60683;51.730;8.762;2023-11-21T03:53:03;99959.69;;;6.13;100.00
72640;BME280;60683;51.730;8.762;2023-11-21T03:55:30;99972.41;;;6.17;100.00
72640;BME280;60683;51.730;8.762;2023-11-21T03:57:57;99975.28;;;6.22;100.00
72640;BME280;60683;51.730;8.762;2023-11-21T04:00:25;99976.47;;;6.26;100.00
72640;BME280;60683;51.730;8.762;2023-11-21T04:02:52;99983.88;;;6.24;100.00
72640;BME280;60683;51.730;8.762;2023-11-21T04:05:20;99981.00;;;6.26;100.00
72640;BME280;60683;51.730;8.762;2023-11-21T04:07:48;99976.88;;;6.30;100.00
72640;BME280;60683;51.730;8.762;2023-11-21T04:10:15;99981.78;;;6.40;100.00
72640;BME280;60683;51.730;8.762;2023-11-21T04:12:42;99983.44;;;6.34;100.00
72640;BME280;60683;51.730;8.762;2023-11-21T04:15:10;99983.66;;;6.32;100.00
72640;BME280;60683;51.730;8.762;2023-11-21T04:17:38;99982.81;;;6.32;100.00
72640;BME280;60683;51.730;8.762;2023-11-21T04:20:07;99985.72;;;6.30;100.00
72640;BME280;60683;51.730;8.762;2023-11-21T04:22:36;99990.41;;;6.35;100.00
72640;BME280;60683;51.730;8.762;2023-11-21T04:25:06;99993.69;;;6.37;100.00
72640;BME280;60683;51.730;8.762;2023-11-21T04:27:33;99998.63;;;6.40;100.00
72640;BME280;60683;51.730;8.762;2023-11-21T04:30:00;100003.56;;;6.37;100.00
72640;BME280;60683;51.730;8.762;2023-11-21T04:32:27;99987.53;;;6.37;100.00
72640;BME280;60683;51.730;8.762;2023-11-21T04:34:54;100001.50;;;6.39;100.00
72640;BME280;60683;51.730;8.762;2023-11-21T04:37:21;100001.69;;;6.44;100.00
72640;BME280;60683;51.730;8.762;2023-11-21T04:39:48;100002.72;;;6.43;100.00
72640;BME280;60683;51.730;8.762;2023-11-21T04:42:16;100008.47;;;6.46;100.00
72640;BME280;60683;51.730;8.762;2023-11-21T04:44:43;100010.13;;;6.47;100.00
72640;BME280;60683;51.730;8.762;2023-11-21T04:47:10;100012.19;;;6.39;100.00
72640;BME280;60683;51.730;8.762;2023-11-21T04:49:42;100011.16;;;6.40;100.00
72640;BME280;60683;51.730;8.762;2023-11-21T04:52:09;100018.56;;;6.38;100.00
72640;BME280;60683;51.730;8.762;2023-11-21T04:54:36;100016.69;;;6.38;100.00
72640;BME280;60683;51.730;8.762;2023-11-21T04:57:03;100025.72;;;6.44;100.00
72640;BME280;60683;51.730;8.762;2023-11-21T04:59:34;100031.47;;;6.47;100.00
72640;BME280;60683;51.730;8.762;2023-11-21T05:02:01;100027.38;;;6.45;100.00
72640;BME280;60683;51.730;8.762;2023-11-21T05:04:28;100029.44;;;6.43;100.00
72640;BME280;60683;51.730;8.762;2023-11-21T05:06:55;100027.16;;;6.53;100.00
72640;BME280;60683;51.730;8.762;2023-11-21T05:09:23;100028.56;;;6.62;100.00
72640;BME280;60683;51.730;8.762;2023-11-21T05:11:49;100026.53;;;6.57;100.00
72640;BME280;60683;51.730;8.762;2023-11-21T05:14:16;100031.25;;;6.55;100.00
72640;BME280;60683;51.730;8.762;2023-11-21T05:16:45;100031.03;;;6.63;100.00
72640;BME280;60683;51.730;8.762;2023-11-21T05:19:13;100031.66;;;6.59;100.00
72640;BME280;60683;51.730;8.762;2023-11-21T05:21:39;100034.75;;;6.56;100.00
72640;BME280;60683;51.730;8.762;2023-11-21T05:24:07;100026.72;;;6.56;100.00
72640;BME280;60683;51.730;8.762;2023-11-21T05:26:34;100030.44;;;6.55;100.00
72640;BME280;60683;51.730;8.762;2023-11-21T05:29:01;100031.88;;;6.57;100.00
72640;BME280;60683;51.730;8.762;2023-11-21T05:31:28;100031.03;;;6.57;100.00
72640;BME280;60683;51.730;8.762;2023-11-21T05:33:56;100034.94;;;6.61;100.00
72640;BME280;60683;51.730;8.762;2023-11-21T05:36:23;100041.31;;;6.60;100.00
72640;BME280;60683;51.730;8.762;2023-11-21T05:38:50;100040.88;;;6.63;100.00
72640;BME280;60683;51.730;8.762;2023-11-21T05:41:17;100045.84;;;6.59;100.00
72640;BME280;60683;51.730;8.762;2023-11-21T05:43:44;100046.88;;;6.58;100.00
72640;BME280;60683;51.730;8.762;2023-11-21T05:46:11;100047.69;;;6.59;100.00
72640;BME280;60683;51.730;8.762;2023-11-21T05:48:39;100054.03;;;6.64;100.00
72640;BME280;60683;51.730;8.762;2023-11-21T05:51:07;100057.94;;;6.62;100.00
72640;BME280;60683;51.730;8.762;2023-11-21T05:53:35;100056.91;;;6.63;100.00
72640;BME280;60683;51.730;8.762;2023-11-21T05:56:01;100059.38;;;6.71;100.00
72640;BME280;60683;51.730;8.762;2023-11-21T05:58:29;100054.22;;;6.70;100.00
72640;BME280;60683;51.730;8.762;2023-11-21T06:00:56;100060.97;;;6.79;100.00
72640;BME280;60683;51.730;8.762;2023-11-21T06:03:23;100058.53;;;6.71;100.00
72640;BME280;60683;51.730;8.762;2023-11-21T06:05:50;100056.28;;;6.74;100.00
72640;BME280;60683;51.730;8.762;2023-11-21T06:08:18;100057.31;;;6.73;100.00
72640;BME280;60683;51.730;8.762;2023-11-21T06:10:46;100058.75;;;6.69;100.00
72640;BME280;60683;51.730;8.762;2023-11-21T06:13:15;100063.91;;;6.64;100.00
72640;BME280;60683;51.730;8.762;2023-11-21T06:15:41;100060.81;;;6.67;100.00
72640;BME280;60683;51.730;8.762;2023-11-21T06:18:09;100066.38;;;6.66;100.00
72640;BME280;60683;51.730;8.762;2023-11-21T06:20:36;100061.00;;;6.72;100.00
72640;BME280;60683;51.730;8.762;2023-11-21T06:23:04;100065.75;;;6.70;100.00
72640;BME280;60683;51.730;8.762;2023-11-21T06:25:32;100078.22;;;6.76;100.00
72640;BME280;60683;51.730;8.762;2023-11-21T06:28:02;100086.47;;;6.75;100.00
72640;BME280;60683;51.730;8.762;2023-11-21T06:30:29;100097.38;;;6.73;100.00
72640;BME280;60683;51.730;8.762;2023-11-21T06:32:56;100096.97;;;6.70;100.00
72640;BME280;60683;51.730;8.762;2023-11-21T06:35:23;100100.88;;;6.74;100.00
72640;BME280;60683;51.730;8.762;2023-11-21T06:37:50;100104.75;;;6.78;100.00
72640;BME280;60683;51.730;8.762;2023-11-21T06:40:18;100101.69;;;6.74;100.00
72640;BME280;60683;51.730;8.762;2023-11-21T06:42:46;100102.09;;;6.71;100.00
72640;BME280;60683;51.730;8.762;2023-11-21T06:45:15;100113.81;;;6.70;100.00
72640;BME280;60683;51.730;8.762;2023-11-21T06:47:42;100110.94;;;6.72;100.00
72640;BME280;60683;51.730;8.762;2023-11-21T06:50:09;100115.47;;;6.71;100.00
72640;BME280;60683;51.730;8.762;2023-11-21T06:52:36;100112.97;;;6.76;100.00
72640;BME280;60683;51.730;8.762;2023-11-21T06:55:04;100121.84;;;6.70;100.00
72640;BME280;60683;51.730;8.762;2023-11-21T06:57:34;100133.13;;;6.72;100.00
72640;BME280;60683;51.730;8.762;2023-11-21T07:00:04;100133.75;;;6.68;100.00
72640;BME280;60683;51.730;8.762;2023-11-21T07:02:31;100140.34;;;6.65;100.00
72640;BME280;60683;51.730;8.762;2023-11-21T07:04:58;100153.50;;;6.67;100.00
72640;BME280;60683;51.730;8.762;2023-11-21T07:07:25;100144.25;;;6.69;100.00
72640;BME280;60683;51.730;8.762;2023-11-21T07:09:52;100141.16;;;6.72;100.00
72640;BME280;60683;51.730;8.762;2023-11-21T07:12:19;100151.59;;;6.80;100.00
72640;BME280;60683;51.730;8.762;2023-11-21T07:14:49;100144.81;;;6.78;100.00
72640;BME280;60683;51.730;8.762;2023-11-21T07:17:17;100157.13;;;6.85;100.00
72640;BME280;60683;51.730;8.762;2023-11-21T07:19:44;100158.78;;;6.86;100.00
72640;BME280;60683;51.730;8.762;2023-11-21T07:22:11;100155.28;;;6.86;100.00
72640;BME280;60683;51.730;8.762;2023-11-21T07:24:38;100161.25;;;6.88;100.00
72640;BME280;60683;51.730;8.762;2023-11-21T07:27:05;100170.50;;;6.85;100.00
72640;BME280;60683;51.730;8.762;2023-11-21T07:29:32;100164.94;;;6.80;100.00
72640;BME280;60683;51.730;8.762;2023-11-21T07:32:00;100176.25;;;6.82;100.00
72640;BME280;60683;51.730;8.762;2023-11-21T07:34:28;100178.72;;;6.77;100.00
72640;BME280;60683;51.730;8.762;2023-11-21T07:36:55;100184.88;;;6.84;100.00
72640;BME280;60683;51.730;8.762;2023-11-21T07:39:22;100188.78;;;6.88;100.00
72640;BME280;60683;51.730;8.762;2023-11-21T07:41:49;100192.09;;;6.84;100.00
72640;BME280;60683;51.730;8.762;2023-11-21T07:44:16;100193.09;;;6.89;100.00
72640;BME280;60683;51.730;8.762;2023-11-21T07:46:43;100194.34;;;6.93;100.00
72640;BME280;60683;51.730;8.762;2023-11-21T07:49:10;100193.09;;;6.89;100.00
72640;BME280;60683;51.730;8.762;2023-11-21T07:51:39;100202.75;;;6.90;100.00
72640;BME280;60683;51.730;8.762;2023-11-21T07:54:06;100200.09;;;6.97;100.00
72640;BME280;60683;51.730;8.762;2023-11-21T07:56:33;100209.53;;;7.00;100.00
72640;BME280;60683;51.730;8.762;2023-11-21T07:59:00;100213.66;;;6.95;100.00
72640;BME280;60683;51.730;8.762;2023-11-21T08:01:27;100221.06;;;6.93;100.00
72640;BME280;60683;51.730;8.762;2023-11-21T08:03:54;100216.75;;;6.92;100.00
72640;BME280;60683;51.730;8.762;2023-11-21T08:06:23;100220.03;;;6.94;100.00
72640;BME280;60683;51.730;8.762;2023-11-21T08:08:52;100228.88;;;7.02;100.00
72640;BME280;60683;51.730;8.762;2023-11-21T08:11:19;100229.47;;;6.97;100.00
72640;BME280;60683;51.730;8.762;2023-11-21T08:13:46;100226.59;;;6.98;100.00
72640;BME280;60683;51.730;8.762;2023-11-21T08:16:14;100230.31;;;6.97;100.00
72640;BME280;60683;51.730;8.762;2023-11-21T08:18:42;100235.84;;;6.89;100.00
72640;BME280;60683;51.730;8.762;2023-11-21T08:21:09;100238.53;;;6.89;100.00
72640;BME280;60683;51.730;8.762;2023-11-21T08:23:37;100232.78;;;6.92;100.00
72640;BME280;60683;51.730;8.762;2023-11-21T08:26:06;100235.44;;;6.92;100.00
72640;BME280;60683;51.730;8.762;2023-11-21T08:28:34;100241.63;;;7.00;100.00
72640;BME280;60683;51.730;8.762;2023-11-21T08:31:01;100238.53;;;6.96;100.00
72640;BME280;60683;51.730;8.762;2023-11-21T08:33:28;100250.03;;;6.96;100.00
72640;BME280;60683;51.730;8.762;2023-11-21T08:35:55;100240.38;;;6.95;100.00
72640;BME280;60683;51.730;8.762;2023-11-21T08:38:22;100232.97;;;6.97;100.00
72640;BME280;60683;51.730;8.762;2023-11-21T08:40:49;100233.38;;;6.94;100.00
72640;BME280;60683;51.730;8.762;2023-11-21T08:43:18;100234.00;;;6.96;100.00
72640;BME280;60683;51.730;8.762;2023-11-21T08:45:45;100236.06;;;7.01;100.00
72640;BME280;60683;51.730;8.762;2023-11-21T08:48:13;100244.69;;;7.03;100.00
72640;BME280;60683;51.730;8.762;2023-11-21T08:50:40;100246.13;;;7.06;100.00
72640;BME280;60683;51.730;8.762;2023-11-21T08:53:07;100245.72;;;7.02;100.00
72640;BME280;60683;51.730;8.762;2023-11-21T08:55:36;100263.00;;;7.00;100.00
72640;BME280;60683;51.730;8.762;2023-11-21T08:58:03;100271.00;;;7.00;100.00
72640;BME280;60683;51.730;8.762;2023-11-21T09:00:34;100267.72;;;7.04;100.00
72640;BME280;60683;51.730;8.762;2023-11-21T09:03:02;100285.00;;;7.02;100.00
72640;BME280;60683;51.730;8.762;2023-11-21T09:05:37;100276.56;;;7.05;100.00
72640;BME280;60683;51.730;8.762;2023-11-21T09:08:05;100285.41;;;7.05;100.00
72640;BME280;60683;51.730;8.762;2023-11-21T09:10:33;100291.97;;;7.09;100.00
72640;BME280;60683;51.730;8.762;2023-11-21T09:13:01;100287.66;;;7.08;100.00
72640;BME280;60683;51.730;8.762;2023-11-21T09:15:28;100296.50;;;7.09;100.00
72640;BME280;60683;51.730;8.762;2023-11-21T09:17:57;100287.47;;;7.10;100.00
72640;BME280;60683;51.730;8.762;2023-11-21T09:20:24;100299.38;;;7.14;100.00
72640;BME280;60683;51.730;8.762;2023-11-21T09:22:51;100289.94;;;7.18;100.00
72640;BME280;60683;51.730;8.762;2023-11-21T09:25:18;100303.91;;;7.13;100.00
72640;BME280;60683;51.730;8.762;2023-11-21T09:27:45;100309.66;;;7.10;100.00
72640;BME280;60683;51.730;8.762;2023-11-21T09:30:13;100309.25;;;7.13;100.00
72640;BME280;60683;51.730;8.762;2023-11-21T09:32:40;100304.31;;;7.17;100.00
72640;BME280;60683;51.730;8.762;2023-11-21T09:35:12;100319.13;;;7.19;100.00
72640;BME280;60683;51.730;8.762;2023-11-21T09:37:39;100322.00;;;7.18;100.00
72640;BME280;60683;51.730;8.762;2023-11-21T09:40:10;100325.91;;;7.15;100.00
72640;BME280;60683;51.730;8.762;2023-11-21T09:42:40;100322.22;;;7.10;100.00
72640;BME280;60683;51.730;8.762;2023-11-21T09:45:17;100327.16;;;7.13;100.00
72640;BME280;60683;51.730;8.762;2023-11-21T09:47:46;100326.31;;;7.19;100.00
72640;BME280;60683;51.730;8.762;2023-11-21T09:50:16;100328.19;;;7.18;100.00
72640;BME280;60683;51.730;8.762;2023-11-21T09:52:51;100336.19;;;7.18;100.00
72640;BME280;60683;51.730;8.762;2023-11-21T09:55:21;100336.00;;;7.20;100.00
72640;BME280;60683;51.730;8.762;2023-11-21T09:57:49;100339.06;;;7.17;100.00
72640;BME280;60683;51.730;8.762;2023-11-21T10:00:17;100341.75;;;7.10;100.00
72640;BME280;60683;51.730;8.762;2023-11-21T10:02:46;100344.22;;;7.12;100.00
72640;BME280;60683;51.730;8.762;2023-11-21T10:05:16;100342.97;;;7.08;100.00
72640;BME280;60683;51.730;8.762;2023-11-21T10:07:44;100347.09;;;7.10;100.00
72640;BME280;60683;51.730;8.762;2023-11-21T10:10:13;100342.97;;;7.14;100.00
72640;BME280;60683;51.730;8.762;2023-11-21T10:12:43;100345.44;;;7.16;100.00
72640;BME280;60683;51.730;8.762;2023-11-21T10:15:14;100341.13;;;7.15;100.00
72640;BME280;60683;51.730;8.762;2023-11-21T10:17:43;100340.50;;;7.19;100.00
72640;BME280;60683;51.730;8.762;2023-11-21T10:20:11;100341.75;;;7.17;100.00
72640;BME280;60683;51.730;8.762;2023-11-21T10:22:41;100347.31;;;7.22;100.00
72640;BME280;60683;51.730;8.762;2023-11-21T10:25:09;100346.91;;;7.18;100.00
72640;BME280;60683;51.730;8.762;2023-11-21T10:27:37;100357.59;;;7.12;100.00
72640;BME280;60683;51.730;8.762;2023-11-21T10:30:06;100356.56;;;7.13;100.00
72640;BME280;60683;51.730;8.762;2023-11-21T10:32:33;100355.72;;;7.19;100.00
72640;BME280;60683;51.730;8.762;2023-11-21T10:35:00;100352.03;;;7.20;100.00
72640;BME280;60683;51.730;8.762;2023-11-21T10:37:32;100356.97;;;7.16;100.00
72640;BME280;60683;51.730;8.762;2023-11-21T10:40:00;100368.91;;;7.20;100.00
72640;BME280;60683;51.730;8.762;2023-11-21T10:42:27;100374.03;;;7.22;100.00
72640;BME280;60683;51.730;8.762;2023-11-21T10:44:55;100364.38;;;7.21;100.00
72640;BME280;60683;51.730;8.762;2023-11-21T10:47:21;100371.78;;;7.25;100.00
72640;BME280;60683;51.730;8.762;2023-11-21T10:49:49;100374.84;;;7.29;100.00
72640;BME280;60683;51.730;8.762;2023-11-21T10:52:19;100373.19;;;7.41;100.00
72640;BME280;60683;51.730;8.762;2023-11-21T10:54:46;100377.09;;;7.52;100.00
72640;BME280;60683;51.730;8.762;2023-11-21T10:57:17;100382.03;;;7.42;100.00
72640;BME280;60683;51.730;8.762;2023-11-21T10:59:47;100375.25;;;7.46;100.00
72640;BME280;60683;51.730;8.762;2023-11-21T11:02:21;100373.59;;;7.45;100.00
72640;BME280;60683;51.730;8.762;2023-11-21T11:04:52;100381.84;;;7.43;100.00
72640;BME280;60683;51.730;8.762;2023-11-21T11:07:20;100375.25;;;7.39;100.00
72640;BME280;60683;51.730;8.762;2023-11-21T11:09:49;100372.16;;;7.42;100.00
72640;BME280;60683;51.730;8.762;2023-11-21T11:12:17;100382.66;;;7.44;100.00
72640;BME280;60683;51.730;8.762;2023-11-21T11:14:46;100372.97;;;7.56;100.00
72640;BME280;60683;51.730;8.762;2023-11-21T11:17:13;100370.72;;;7.59;100.00
72640;BME280;60683;51.730;8.762;2023-11-21T11:19:40;100376.25;;;7.64;100.00
72640;BME280;60683;51.730;8.762;2023-11-21T11:22:19;100379.56;;;7.60;100.00
72640;BME280;60683;51.730;8.762;2023-11-21T11:25:03;100381.63;;;7.64;100.00
72640;BME280;60683;51.730;8.762;2023-11-21T11:27:48;100396.22;;;7.69;100.00
72640;BME280;60683;51.730;8.762;2023-11-21T11:30:28;100398.28;;;7.67;100.00
72640;BME280;60683;51.730;8.762;2023-11-21T11:33:05;100396.84;;;7.64;100.00
72640;BME280;60683;51.730;8.762;2023-11-21T11:35:43;100399.94;;;7.68;100.00
72640;BME280;60683;51.730;8.762;2023-11-21T11:38:14;100396.44;;;7.67;100.00
72640;BME280;60683;51.730;8.762;2023-11-21T11:40:45;100404.25;;;7.69;100.00
72640;BME280;60683;51.730;8.762;2023-11-21T11:43:24;100409.59;;;7.69;100.00
72640;BME280;60683;51.730;8.762;2023-11-21T11:45:51;100401.78;;;7.74;100.00
72640;BME280;60683;51.730;8.762;2023-11-21T11:48:21;100404.66;;;7.72;100.00
72640;BME280;60683;51.730;8.762;2023-11-21T11:51:02;100408.75;;;7.81;100.00
72640;BME280;60683;51.730;8.762;2023-11-21T11:53:35;100410.22;;;7.77;100.00
72640;BME280;60683;51.730;8.762;2023-11-21T11:56:25;100419.06;;;7.78;100.00
72640;BME280;60683;51.730;8.762;2023-11-21T11:58:55;100412.88;;;7.77;100.00
72640;BME280;60683;51.730;8.762;2023-11-21T12:01:24;100415.78;;;7.76;100.00
72640;BME280;60683;51.730;8.762;2023-11-21T12:04:22;100427.31;;;7.76;100.00
72640;BME280;60683;51.730;8.762;2023-11-21T12:06:51;100413.09;;;7.76;100.00
72640;BME280;60683;51.730;8.762;2023-11-21T12:09:19;100420.09;;;7.70;100.00
72640;BME280;60683;51.730;8.762;2023-11-21T12:11:48;100427.72;;;7.60;100.00
72640;BME280;60683;51.730;8.762;2023-11-21T12:14:16;100426.06;;;7.39;100.00
72640;BME280;60683;51.730;8.762;2023-11-21T12:16:44;100434.69;;;7.28;100.00
72640;BME280;60683;51.730;8.762;2023-11-21T12:19:11;100437.81;;;7.25;100.00
72640;BME280;60683;51.730;8.762;2023-11-21T12:21:38;100436.78;;;7.26;100.00
72640;BME280;60683;51.730;8.762;2023-11-21T12:24:07;100442.34;;;7.24;100.00
72640;BME280;60683;51.730;8.762;2023-11-21T12:26:34;100458.56;;;7.36;100.00
72640;BME280;60683;51.730;8.762;2023-11-21T12:29:02;100452.19;;;7.37;100.00
72640;BME280;60683;51.730;8.762;2023-11-21T12:31:31;100460.03;;;7.45;100.00
72640;BME280;60683;51.730;8.762;2023-11-21T12:33:58;100446.66;;;7.45;100.00
72640;BME280;60683;51.730;8.762;2023-11-21T12:36:26;100461.88;;;7.51;100.00
72640;BME280;60683;51.730;8.762;2023-11-21T12:38:55;100468.88;;;7.52;100.00
72640;BME280;60683;51.730;8.762;2023-11-21T12:41:23;100470.13;;;7.56;100.00
72640;BME280;60683;51.730;8.762;2023-11-21T12:43:50;100469.28;;;7.49;100.00
72640;BME280;60683;51.730;8.762;2023-11-21T12:46:17;100482.03;;;7.41;100.00
72640;BME280;60683;51.730;8.762;2023-11-21T12:48:47;100481.63;;;7.44;100.00
72640;BME280;60683;51.730;8.762;2023-11-21T12:51:14;100487.78;;;7.38;100.00
72640;BME280;60683;51.730;8.762;2023-11-21T12:53:42;100487.38;;;7.34;100.00
72640;BME280;60683;51.730;8.762;2023-11-21T12:56:10;100486.56;;;7.27;100.00
72640;BME280;60683;51.730;8.762;2023-11-21T12:58:37;100491.91;;;7.20;100.00